createdAt,value
2023-02-23T00:00:51.775Z,8.71
2023-02-23T00:03:21.525Z,8.68
2023-02-23T00:05:49.800Z,8.67
2023-02-23T00:08:18.121Z,8.65
2023-02-23T00:10:48.335Z,8.62
2023-02-23T00:13:16.528Z,8.61
2023-02-23T00:15:44.745Z,8.58
2023-02-23T00:18:14.331Z,8.68
2023-02-23T00:20:47.920Z,8.64
2023-02-23T00:23:16.472Z,8.57
2023-02-23T00:25:46.610Z,8.54
2023-02-23T00:28:17.073Z,8.54
2023-02-23T00:30:46.714Z,8.52
2023-02-23T00:33:15.232Z,8.50
2023-02-23T00:35:44.011Z,8.52
2023-02-23T00:38:14.245Z,8.56
2023-02-23T00:40:43.158Z,8.57
2023-02-23T00:43:11.572Z,8.56
2023-02-23T00:45:42.123Z,8.54
2023-02-23T00:48:11.074Z,8.53
2023-02-23T00:50:41.954Z,8.51
2023-02-23T00:53:11.573Z,8.53
2023-02-23T00:55:41.974Z,8.49
2023-02-23T00:58:14.065Z,8.56
2023-02-23T01:00:44.757Z,8.51
2023-02-23T01:03:13.209Z,8.47
2023-02-23T01:05:41.893Z,8.46
2023-02-23T01:08:11.836Z,8.45
2023-02-23T01:10:44.343Z,8.46
2023-02-23T01:13:13.654Z,8.45
2023-02-23T01:15:48.280Z,8.47
2023-02-23T01:18:17.596Z,8.45
2023-02-23T01:20:46.361Z,8.47
2023-02-23T01:23:16.103Z,8.47
2023-02-23T01:25:46.584Z,8.48
2023-02-23T01:28:15.450Z,8.47
2023-02-23T01:30:45.714Z,8.47
2023-02-23T01:33:14.344Z,8.45
2023-02-23T01:35:43.944Z,8.50
2023-02-23T01:38:15.688Z,8.51
2023-02-23T01:40:47.304Z,8.52
2023-02-23T01:43:20.965Z,8.50
2023-02-23T01:45:50.998Z,8.47
2023-02-23T01:48:22.839Z,8.49
2023-02-23T01:50:55.657Z,8.46
2023-02-23T01:53:26.212Z,8.47
2023-02-23T01:55:58.836Z,8.45
2023-02-23T01:58:29.892Z,8.44
2023-02-23T02:01:02.440Z,8.41
2023-02-23T02:03:35.958Z,8.41
2023-02-23T02:06:06.293Z,8.40
2023-02-23T02:08:35.189Z,8.39
2023-02-23T02:11:10.068Z,8.40
2023-02-23T02:13:38.255Z,8.38
2023-02-23T02:16:45.298Z,8.38
2023-02-23T02:19:50.303Z,8.36
2023-02-23T02:22:38.357Z,8.36
2023-02-23T02:25:29.397Z,8.39
2023-02-23T02:28:22.478Z,8.39
2023-02-23T02:31:19.958Z,8.39
2023-02-23T02:34:22.495Z,8.37
2023-02-23T02:37:21.912Z,8.37
2023-02-23T02:40:15.894Z,8.37
2023-02-23T02:43:00.340Z,8.36
2023-02-23T02:45:34.423Z,8.39
2023-02-23T02:48:12.074Z,8.36
2023-02-23T02:50:47.752Z,8.37
2023-02-23T02:53:24.129Z,8.42
2023-02-23T02:55:56.624Z,8.41
2023-02-23T02:58:25.900Z,8.40
2023-02-23T03:01:11.908Z,8.40
2023-02-23T03:04:00.079Z,8.40
2023-02-23T03:06:50.669Z,8.42
2023-02-23T03:09:50.823Z,8.40
2023-02-23T03:12:48.585Z,8.39
2023-02-23T03:15:54.031Z,8.38
2023-02-23T03:19:02.802Z,8.36
2023-02-23T03:21:54.924Z,8.35
2023-02-23T03:24:52.978Z,8.35
2023-02-23T03:27:46.196Z,8.41
2023-02-23T03:30:39.732Z,8.41
2023-02-23T03:33:34.012Z,8.39
2023-02-23T03:36:24.108Z,8.39
2023-02-23T03:39:16.721Z,8.39
2023-02-23T03:42:07.704Z,8.43
2023-02-23T03:44:58.858Z,8.43
2023-02-23T03:47:54.461Z,8.45
2023-02-23T03:50:45.346Z,8.48
2023-02-23T03:53:36.314Z,8.47
2023-02-23T03:56:24.227Z,8.48
2023-02-23T03:59:18.339Z,8.45
2023-02-23T04:02:05.448Z,8.45
2023-02-23T04:04:52.152Z,8.44
2023-02-23T04:07:39.154Z,8.43
2023-02-23T04:10:27.771Z,8.42
2023-02-23T04:13:16.345Z,8.42
2023-02-23T04:15:50.050Z,8.41
2023-02-23T04:18:26.227Z,8.40
2023-02-23T04:20:55.881Z,8.39
2023-02-23T04:23:24.343Z,8.39
2023-02-23T04:25:53.953Z,8.39
2023-02-23T04:28:23.074Z,8.38
2023-02-23T04:30:53.801Z,8.38
2023-02-23T04:33:25.114Z,8.38
2023-02-23T04:35:54.392Z,8.38
2023-02-23T04:38:23.145Z,8.40
2023-02-23T04:40:51.898Z,8.41
2023-02-23T04:43:20.325Z,8.40
2023-02-23T04:45:49.093Z,8.39
2023-02-23T04:48:19.591Z,8.41
2023-02-23T04:50:47.912Z,8.42
2023-02-23T04:53:17.823Z,8.43
2023-02-23T04:55:47.826Z,8.40
2023-02-23T04:58:15.929Z,8.42
2023-02-23T05:00:44.301Z,8.42
2023-02-23T05:03:12.957Z,8.43
2023-02-23T05:05:42.781Z,8.40
2023-02-23T05:08:11.707Z,8.40
2023-02-23T05:10:40.519Z,8.40
2023-02-23T05:13:09.072Z,8.39
2023-02-23T05:15:37.414Z,8.38
2023-02-23T05:18:07.238Z,8.45
2023-02-23T05:20:35.467Z,8.46
2023-02-23T05:23:05.158Z,8.48
2023-02-23T05:25:33.602Z,8.44
2023-02-23T05:28:03.805Z,8.43
2023-02-23T05:30:33.125Z,8.39
2023-02-23T05:33:01.958Z,8.42
2023-02-23T05:35:30.268Z,8.38
2023-02-23T05:37:58.488Z,8.36
2023-02-23T05:40:28.059Z,8.35
2023-02-23T05:42:59.666Z,8.36
2023-02-23T05:45:29.269Z,8.36
2023-02-23T05:47:58.895Z,8.37
2023-02-23T05:50:27.684Z,8.35
2023-02-23T05:52:55.823Z,8.36
2023-02-23T05:55:25.824Z,8.38
2023-02-23T05:57:55.385Z,8.35
2023-02-23T06:00:24.362Z,8.32
2023-02-23T06:02:54.226Z,8.29
2023-02-23T06:05:22.609Z,8.28
2023-02-23T06:07:51.995Z,8.30
2023-02-23T06:10:20.179Z,8.31
2023-02-23T06:12:48.805Z,8.33
2023-02-23T06:15:19.821Z,8.32
2023-02-23T06:17:48.310Z,8.33
2023-02-23T06:20:17.293Z,8.33
2023-02-23T06:22:45.393Z,8.36
2023-02-23T06:25:13.965Z,8.39
2023-02-23T06:27:42.594Z,8.40
2023-02-23T06:30:12.736Z,8.43
2023-02-23T06:32:43.046Z,8.43
2023-02-23T06:35:15.725Z,8.44
2023-02-23T06:37:44.481Z,8.47
2023-02-23T06:40:13.227Z,8.49
2023-02-23T06:42:41.462Z,8.47
2023-02-23T06:45:11.712Z,8.47
2023-02-23T06:47:41.862Z,8.50
2023-02-23T06:50:11.816Z,8.52
2023-02-23T06:52:42.635Z,8.53
2023-02-23T06:55:11.216Z,8.55
2023-02-23T06:57:41.477Z,8.57
2023-02-23T07:00:11.015Z,8.65
2023-02-23T07:02:39.534Z,8.65
2023-02-23T07:05:10.506Z,8.66
2023-02-23T07:07:39.079Z,8.70
2023-02-23T07:10:08.774Z,8.72
2023-02-23T07:12:38.693Z,8.74
2023-02-23T07:15:07.959Z,8.74
2023-02-23T07:17:36.540Z,8.75
2023-02-23T07:20:06.347Z,8.72
2023-02-23T07:22:36.204Z,8.70
2023-02-23T07:25:05.384Z,8.77
2023-02-23T07:27:36.153Z,8.77
2023-02-23T07:30:07.057Z,8.75
2023-02-23T07:32:35.469Z,8.79
2023-02-23T07:35:04.608Z,8.88
2023-02-23T07:37:33.637Z,8.94
2023-02-23T07:40:04.032Z,8.96
2023-02-23T07:42:32.621Z,9.00
2023-02-23T07:45:01.451Z,8.98
2023-02-23T07:47:31.149Z,9.05
2023-02-23T07:50:00.862Z,9.11
2023-02-23T07:52:29.524Z,9.13
2023-02-23T07:55:00.631Z,9.18
2023-02-23T07:57:32.937Z,9.25
2023-02-23T08:00:02.793Z,9.28
2023-02-23T08:02:41.312Z,9.23
2023-02-23T08:05:10.082Z,9.30
2023-02-23T08:07:40.498Z,9.36
2023-02-23T08:10:12.338Z,9.45
2023-02-23T08:12:44.428Z,9.46
2023-02-23T08:15:13.124Z,9.50
2023-02-23T08:17:41.984Z,9.47
2023-02-23T08:20:12.683Z,9.46
2023-02-23T08:22:49.464Z,9.40
2023-02-23T08:25:19.374Z,9.46
2023-02-23T08:27:52.714Z,9.46
2023-02-23T08:30:22.284Z,9.51
2023-02-23T08:32:52.859Z,9.44
2023-02-23T08:35:23.120Z,9.50
2023-02-23T08:37:52.123Z,9.46
2023-02-23T08:40:22.149Z,9.46
2023-02-23T08:42:52.298Z,9.53
2023-02-23T08:45:21.556Z,9.54
2023-02-23T08:47:50.067Z,9.46
2023-02-23T08:50:18.683Z,9.49
2023-02-23T08:52:48.882Z,9.53
2023-02-23T08:55:18.608Z,9.53
2023-02-23T08:57:46.871Z,9.59
2023-02-23T09:00:17.904Z,9.70
2023-02-23T09:02:48.156Z,9.76
2023-02-23T09:05:17.631Z,9.65
2023-02-23T09:07:47.674Z,9.71
2023-02-23T09:10:24.032Z,9.78
2023-02-23T09:12:52.993Z,9.76
2023-02-23T09:15:22.872Z,9.94
2023-02-23T09:17:51.232Z,10.03
2023-02-23T09:20:19.861Z,10.04
2023-02-23T09:22:49.819Z,10.13
2023-02-23T09:25:22.838Z,10.23
2023-02-23T09:27:52.776Z,10.28
2023-02-23T09:30:22.304Z,10.28
2023-02-23T09:32:52.451Z,10.32
2023-02-23T09:35:24.548Z,10.47
2023-02-23T09:37:54.896Z,10.67
2023-02-23T09:40:25.892Z,10.71
2023-02-23T09:43:01.567Z,10.82
2023-02-23T09:45:39.680Z,10.83
2023-02-23T09:48:20.352Z,10.89
2023-02-23T09:50:51.992Z,11.21
2023-02-23T09:53:34.592Z,11.14
2023-02-23T09:56:08.730Z,11.44
2023-02-23T09:58:37.466Z,11.86
2023-02-23T10:01:42.227Z,11.81
2023-02-23T10:04:17.282Z,11.95
2023-02-23T10:06:50.060Z,12.14
2023-02-23T10:09:27.962Z,12.21
2023-02-23T10:12:07.721Z,12.05
2023-02-23T10:14:56.247Z,11.99
2023-02-23T10:17:36.709Z,11.86
2023-02-23T10:20:15.319Z,11.76
2023-02-23T10:22:46.839Z,11.71
2023-02-23T10:25:21.324Z,11.90
2023-02-23T10:27:52.383Z,11.97
2023-02-23T10:30:24.945Z,11.96
2023-02-23T10:33:00.911Z,12.19
2023-02-23T10:35:32.484Z,12.13
2023-02-23T10:38:02.963Z,12.44
2023-02-23T10:40:34.234Z,12.86
2023-02-23T10:43:03.372Z,13.38
2023-02-23T10:45:46.624Z,13.27
2023-02-23T10:48:24.425Z,13.06
2023-02-23T10:51:00.260Z,13.21
2023-02-23T10:53:36.663Z,13.58
2023-02-23T10:56:11.077Z,13.71
2023-02-23T10:58:46.321Z,13.63
2023-02-23T11:01:15.730Z,13.02
2023-02-23T11:04:05.352Z,12.84
2023-02-23T11:06:39.452Z,13.14
2023-02-23T11:09:41.322Z,13.11
2023-02-23T11:12:21.913Z,13.61
2023-02-23T11:14:51.595Z,13.46
2023-02-23T11:17:30.252Z,13.22
2023-02-23T11:20:19.799Z,12.96
2023-02-23T11:22:48.701Z,13.10
2023-02-23T11:25:25.755Z,12.99
2023-02-23T11:27:57.139Z,13.47
2023-02-23T11:30:30.465Z,13.57
2023-02-23T11:33:09.600Z,13.87
2023-02-23T11:35:39.964Z,14.03
2023-02-23T11:38:25.552Z,14.16
2023-02-23T11:41:02.105Z,14.36
2023-02-23T11:43:31.885Z,14.44
2023-02-23T11:46:04.346Z,14.38
2023-02-23T11:48:35.652Z,14.64
2023-02-23T11:51:06.825Z,14.49
2023-02-23T11:53:38.203Z,14.20
2023-02-23T11:56:11.187Z,13.82
2023-02-23T11:58:42.231Z,13.33
2023-02-23T12:01:16.935Z,13.45
2023-02-23T12:03:49.314Z,13.34
2023-02-23T12:06:30.823Z,13.35
2023-02-23T12:09:06.244Z,13.35
2023-02-23T12:11:40.673Z,13.82
2023-02-23T12:14:19.933Z,13.87
2023-02-23T12:16:53.580Z,13.85
2023-02-23T12:19:27.819Z,14.02
2023-02-23T12:22:06.602Z,13.90
2023-02-23T12:24:48.232Z,13.86
2023-02-23T12:27:19.090Z,14.08
2023-02-23T12:30:08.364Z,13.84
2023-02-23T12:32:46.940Z,13.89
2023-02-23T12:35:20.940Z,13.94
2023-02-23T12:37:55.081Z,14.00
2023-02-23T12:40:28.454Z,14.36
2023-02-23T12:43:03.470Z,14.55
2023-02-23T12:45:38.544Z,14.61
2023-02-23T12:48:20.184Z,14.60
2023-02-23T12:50:54.417Z,14.84
2023-02-23T12:53:30.516Z,14.90
2023-02-23T12:56:19.466Z,14.83
2023-02-23T12:58:59.296Z,14.91
2023-02-23T13:01:31.693Z,14.89
2023-02-23T13:04:20.142Z,14.55
2023-02-23T13:06:55.931Z,14.34
2023-02-23T13:09:39.194Z,14.47
2023-02-23T13:12:18.061Z,14.27
2023-02-23T13:14:56.032Z,14.25
2023-02-23T13:17:37.645Z,13.77
2023-02-23T13:20:13.980Z,13.72
2023-02-23T13:22:50.463Z,13.93
2023-02-23T13:25:29.628Z,13.76
2023-02-23T13:28:02.150Z,13.86
2023-02-23T13:30:33.737Z,13.95
2023-02-23T13:33:12.325Z,14.13
2023-02-23T13:35:42.298Z,14.14
2023-02-23T13:38:22.622Z,13.98
2023-02-23T13:41:00.652Z,13.90
2023-02-23T13:43:35.160Z,14.06
2023-02-23T13:46:32.521Z,14.18
2023-02-23T13:49:06.606Z,14.16
2023-02-23T13:51:39.369Z,14.27
2023-02-23T13:54:24.389Z,14.27
2023-02-23T13:56:58.390Z,14.22
2023-02-23T13:59:30.443Z,13.72
2023-02-23T14:02:03.485Z,13.61
2023-02-23T14:04:37.301Z,13.72
2023-02-23T14:07:18.672Z,13.30
2023-02-23T14:09:54.866Z,13.01
2023-02-23T14:12:28.235Z,13.14
2023-02-23T14:14:56.844Z,13.16
2023-02-23T14:17:43.880Z,13.11
2023-02-23T14:20:29.541Z,13.38
2023-02-23T14:23:29.945Z,13.25
2023-02-23T14:26:17.065Z,13.44
2023-02-23T14:29:08.198Z,13.36
2023-02-23T14:31:37.765Z,13.43
2023-02-23T14:34:09.493Z,13.35
2023-02-23T14:36:44.296Z,13.24
2023-02-23T14:39:19.577Z,13.40
2023-02-23T14:41:51.623Z,13.20
2023-02-23T14:44:30.106Z,13.24
2023-02-23T14:47:09.268Z,13.23
2023-02-23T14:49:41.341Z,13.11
2023-02-23T14:52:20.735Z,13.17
2023-02-23T14:54:50.556Z,13.26
2023-02-23T14:57:22.815Z,13.28
2023-02-23T14:59:58.190Z,13.08
2023-02-23T15:02:29.595Z,13.08
2023-02-23T15:04:58.466Z,13.02
2023-02-23T15:07:33.624Z,12.80
2023-02-23T15:10:06.119Z,12.82
2023-02-23T15:12:38.232Z,12.86
2023-02-23T15:15:18.390Z,12.95
2023-02-23T15:17:49.819Z,12.82
2023-02-23T15:20:23.491Z,12.85
2023-02-23T15:22:55.649Z,12.81
2023-02-23T15:25:27.859Z,12.73
2023-02-23T15:27:57.067Z,12.74
2023-02-23T15:30:30.653Z,12.73
2023-02-23T15:33:08.630Z,12.57
2023-02-23T15:35:42.558Z,12.55
2023-02-23T15:38:18.096Z,12.61
2023-02-23T15:40:57.876Z,12.56
2023-02-23T15:43:29.936Z,12.54
2023-02-23T15:46:04.504Z,12.47
2023-02-23T15:48:46.163Z,12.51
2023-02-23T15:51:30.650Z,12.49
2023-02-23T15:54:00.662Z,12.39
2023-02-23T15:56:33.151Z,12.37
2023-02-23T15:59:05.237Z,12.31
2023-02-23T16:01:44.591Z,12.44
2023-02-23T16:04:19.448Z,12.22
2023-02-23T16:06:53.434Z,12.17
2023-02-23T16:09:30.322Z,12.18
2023-02-23T16:12:04.602Z,12.12
2023-02-23T16:14:36.992Z,12.07
2023-02-23T16:17:15.238Z,12.01
2023-02-23T16:19:45.750Z,11.98
2023-02-23T16:22:22.865Z,11.96
2023-02-23T16:24:59.740Z,11.99
2023-02-23T16:27:29.654Z,11.98
2023-02-23T16:30:01.219Z,11.95
2023-02-23T16:32:42.438Z,11.84
2023-02-23T16:35:17.338Z,11.74
2023-02-23T16:38:00.377Z,11.68
2023-02-23T16:40:29.755Z,11.69
2023-02-23T16:42:59.602Z,11.61
2023-02-23T16:45:29.579Z,11.57
2023-02-23T16:48:03.148Z,11.51
2023-02-23T16:50:33.717Z,11.43
2023-02-23T16:53:03.392Z,11.30
2023-02-23T16:55:37.232Z,11.36
2023-02-23T16:58:11.130Z,11.24
2023-02-23T17:00:39.383Z,11.22
2023-02-23T17:03:17.382Z,11.10
2023-02-23T17:05:46.079Z,11.05
2023-02-23T17:08:15.168Z,11.05
2023-02-23T17:10:47.581Z,10.96
2023-02-23T17:13:19.017Z,10.90
2023-02-23T17:15:53.648Z,10.84
2023-02-23T17:18:28.174Z,10.75
2023-02-23T17:20:58.551Z,10.71
2023-02-23T17:23:38.232Z,10.75
2023-02-23T17:26:09.200Z,10.66
2023-02-23T17:28:37.633Z,10.60
2023-02-23T17:31:07.130Z,10.58
2023-02-23T17:33:37.765Z,10.57
2023-02-23T17:36:08.640Z,10.55
2023-02-23T17:38:36.934Z,10.55
2023-02-23T17:41:08.951Z,10.57
2023-02-23T17:43:38.729Z,10.53
2023-02-23T17:46:07.050Z,10.55
2023-02-23T17:48:37.271Z,10.59
2023-02-23T17:51:12.377Z,10.53
2023-02-23T17:53:41.718Z,10.47
2023-02-23T17:56:13.345Z,10.46
2023-02-23T17:58:42.222Z,10.38
2023-02-23T18:01:11.056Z,10.31
2023-02-23T18:03:40.723Z,10.24
2023-02-23T18:06:11.616Z,10.18
2023-02-23T18:08:41.924Z,10.16
2023-02-23T18:11:12.324Z,10.15
2023-02-23T18:13:40.841Z,10.18
2023-02-23T18:16:10.862Z,10.18
2023-02-23T18:18:43.359Z,10.14
2023-02-23T18:21:14.024Z,10.11
2023-02-23T18:23:42.230Z,10.15
2023-02-23T18:26:13.532Z,10.09
2023-02-23T18:28:44.448Z,10.09
2023-02-23T18:31:15.895Z,10.11
2023-02-23T18:33:49.621Z,10.04
2023-02-23T18:36:21.188Z,10.03
2023-02-23T18:38:49.567Z,10.02
2023-02-23T18:41:20.197Z,10.10
2023-02-23T18:43:49.648Z,10.04
2023-02-23T18:46:17.970Z,10.04
2023-02-23T18:48:51.663Z,10.07
2023-02-23T18:51:21.070Z,10.03
2023-02-23T18:53:50.498Z,10.16
2023-02-23T18:56:23.475Z,10.01
2023-02-23T18:58:53.284Z,9.88
2023-02-23T19:01:25.091Z,9.84
2023-02-23T19:03:58.928Z,9.73
2023-02-23T19:06:28.862Z,9.72
2023-02-23T19:08:59.977Z,9.78
2023-02-23T19:11:30.527Z,9.79
2023-02-23T19:14:02.940Z,9.76
2023-02-23T19:16:32.712Z,9.78
2023-02-23T19:19:02.880Z,9.90
2023-02-23T19:21:31.784Z,9.72
2023-02-23T19:24:02.366Z,9.64
2023-02-23T19:26:33.598Z,9.53
2023-02-23T19:29:02.246Z,9.52
2023-02-23T19:31:30.558Z,9.51
2023-02-23T19:33:59.794Z,9.43
2023-02-23T19:36:31.740Z,9.32
2023-02-23T19:39:05.821Z,9.23
2023-02-23T19:41:35.541Z,9.14
2023-02-23T19:44:03.991Z,9.08
2023-02-23T19:46:32.216Z,9.03
2023-02-23T19:49:00.833Z,8.94
2023-02-23T19:51:31.131Z,8.97
2023-02-23T19:53:59.906Z,8.96
2023-02-23T19:56:29.194Z,8.94
2023-02-23T19:58:57.989Z,8.94
2023-02-23T20:01:28.612Z,8.95
2023-02-23T20:04:02.206Z,9.08
2023-02-23T20:06:36.207Z,9.13
2023-02-23T20:09:05.896Z,9.10
2023-02-23T20:11:34.656Z,9.06
2023-02-23T20:14:05.455Z,9.04
2023-02-23T20:16:34.101Z,9.04
2023-02-23T20:19:03.814Z,9.01
2023-02-23T20:21:34.311Z,8.99
2023-02-23T20:24:05.440Z,9.01
2023-02-23T20:26:35.466Z,9.01
2023-02-23T20:29:07.163Z,9.04
2023-02-23T20:31:37.474Z,9.01
2023-02-23T20:34:09.205Z,8.97
2023-02-23T20:36:39.937Z,8.94
2023-02-23T20:39:09.414Z,8.92
2023-02-23T20:41:37.677Z,8.85
2023-02-23T20:44:06.370Z,8.82
2023-02-23T20:46:34.869Z,8.77
2023-02-23T20:49:03.950Z,8.78
2023-02-23T20:51:32.690Z,8.88
2023-02-23T20:54:02.373Z,8.78
2023-02-23T20:56:32.632Z,8.78
2023-02-23T20:59:01.171Z,8.89
2023-02-23T21:01:31.883Z,8.80
2023-02-23T21:04:01.467Z,8.74
2023-02-23T21:06:32.882Z,8.71
2023-02-23T21:09:17.198Z,8.69
2023-02-23T21:11:48.278Z,8.71
2023-02-23T21:14:17.749Z,8.68
2023-02-23T21:16:46.442Z,8.69
2023-02-23T21:19:17.456Z,8.73
2023-02-23T21:21:50.528Z,8.69
2023-02-23T21:24:20.955Z,8.67
2023-02-23T21:26:49.246Z,8.60
2023-02-23T21:29:18.572Z,8.56
2023-02-23T21:31:48.297Z,8.51
2023-02-23T21:34:19.786Z,8.43
2023-02-23T21:36:48.264Z,8.38
2023-02-23T21:39:17.807Z,8.34
2023-02-23T21:41:48.980Z,8.33
2023-02-23T21:44:19.016Z,8.31
2023-02-23T21:46:50.856Z,8.28
2023-02-23T21:49:22.139Z,8.27
2023-02-23T21:51:52.465Z,8.25
2023-02-23T21:54:21.883Z,8.24
2023-02-23T21:56:51.711Z,8.22
2023-02-23T21:59:21.502Z,8.23
2023-02-23T22:01:49.598Z,8.27
2023-02-23T22:04:19.303Z,8.25
2023-02-23T22:06:47.619Z,8.26
2023-02-23T22:09:15.937Z,8.27
2023-02-23T22:11:46.729Z,8.29
2023-02-23T22:14:18.978Z,8.35
2023-02-23T22:16:47.567Z,8.37
2023-02-23T22:19:16.482Z,8.49
2023-02-23T22:21:48.311Z,8.53
2023-02-23T22:24:18.134Z,8.45
2023-02-23T22:26:50.783Z,8.58
2023-02-23T22:29:20.504Z,8.59
2023-02-23T22:31:49.221Z,8.43
2023-02-23T22:34:20.330Z,8.30
2023-02-23T22:36:51.669Z,8.34
2023-02-23T22:39:21.050Z,8.30
2023-02-23T22:41:49.838Z,8.29
2023-02-23T22:44:22.607Z,8.23
2023-02-23T22:46:52.438Z,8.15
2023-02-23T22:49:20.823Z,8.10
2023-02-23T22:51:50.382Z,8.11
2023-02-23T22:54:24.066Z,8.04
2023-02-23T22:56:52.749Z,8.00
2023-02-23T22:59:22.501Z,7.96
2023-02-23T23:01:56.405Z,7.95
2023-02-23T23:04:26.127Z,7.97
2023-02-23T23:06:54.672Z,7.95
2023-02-23T23:09:25.939Z,7.97
2023-02-23T23:11:58.032Z,7.96
2023-02-23T23:14:28.150Z,7.92
2023-02-23T23:16:56.659Z,7.88
2023-02-23T23:19:24.975Z,7.91
2023-02-23T23:21:55.809Z,7.85
2023-02-23T23:24:26.429Z,7.85
2023-02-23T23:26:56.131Z,7.79
2023-02-23T23:29:29.692Z,7.77
2023-02-23T23:32:01.547Z,7.77
2023-02-23T23:34:33.420Z,7.78
2023-02-23T23:37:02.690Z,7.74
2023-02-23T23:39:31.119Z,7.70
2023-02-23T23:42:01.978Z,7.66
2023-02-23T23:44:30.494Z,7.65
2023-02-23T23:47:05.590Z,7.61
2023-02-23T23:49:38.747Z,7.62
2023-02-23T23:52:07.332Z,7.62
2023-02-23T23:54:39.349Z,7.66
2023-02-23T23:57:11.505Z,7.77
2023-02-23T23:59:45.664Z,7.79
